sensor_id;sensor_type;location;lat;lon;timestamp;P1;durP1;ratioP1;P2;durP2;ratioP2
58820;SDS011;70670;52.476;13.334;2024-01-30T00:01:35;12.35;;;6.38;;
58820;SDS011;70670;52.476;13.334;2024-01-30T00:04:01;12.73;;;5.95;;
58820;SDS011;70670;52.476;13.334;2024-01-30T00:06:27;12.30;;;6.18;;
58820;SDS011;70670;52.476;13.334;2024-01-30T00:08:53;12.80;;;6.03;;
58820;SDS011;70670;52.476;13.334;2024-01-30T00:11:18;11.68;;;6.13;;
58820;SDS011;70670;52.476;13.334;2024-01-30T00:13:44;16.42;;;6.03;;
58820;SDS011;70670;52.476;13.334;2024-01-30T00:16:19;12.48;;;5.65;;
58820;SDS011;70670;52.476;13.334;2024-01-30T00:18:51;9.75;;;5.47;;
58820;SDS011;70670;52.476;13.334;2024-01-30T00:21:17;15.90;;;7.13;;
58820;SDS011;70670;52.476;13.334;2024-01-30T00:23:43;9.63;;;5.47;;
58820;SDS011;70670;52.476;13.334;2024-01-30T00:26:09;12.43;;;5.47;;
58820;SDS011;70670;52.476;13.334;2024-01-30T00:28:35;10.65;;;5.60;;
58820;SDS011;70670;52.476;13.334;2024-01-30T00:31:00;12.85;;;6.03;;
58820;SDS011;70670;52.476;13.334;2024-01-30T00:33:26;12.60;;;5.40;;
58820;SDS011;70670;52.476;13.334;2024-01-30T00:35:51;12.10;;;5.75;;
58820;SDS011;70670;52.476;13.334;2024-01-30T00:38:17;13.77;;;5.97;;
58820;SDS011;70670;52.476;13.334;2024-01-30T00:40:43;14.00;;;6.22;;
58820;SDS011;70670;52.476;13.334;2024-01-30T00:43:08;10.82;;;5.63;;
58820;SDS011;70670;52.476;13.334;2024-01-30T00:45:34;10.20;;;5.93;;
58820;SDS011;70670;52.476;13.334;2024-01-30T00:48:00;13.00;;;6.10;;
58820;SDS011;70670;52.476;13.334;2024-01-30T00:50:25;14.40;;;5.90;;
58820;SDS011;70670;52.476;13.334;2024-01-30T00:52:51;9.93;;;5.30;;
58820;SDS011;70670;52.476;13.334;2024-01-30T00:55:16;15.50;;;5.63;;
58820;SDS011;70670;52.476;13.334;2024-01-30T00:57:42;13.38;;;6.00;;
58820;SDS011;70670;52.476;13.334;2024-01-30T01:00:08;10.10;;;5.90;;
58820;SDS011;70670;52.476;13.334;2024-01-30T01:02:35;12.73;;;6.40;;
58820;SDS011;70670;52.476;13.334;2024-01-30T01:05:01;13.55;;;6.32;;
58820;SDS011;70670;52.476;13.334;2024-01-30T01:07:27;11.45;;;6.05;;
58820;SDS011;70670;52.476;13.334;2024-01-30T01:09:52;10.45;;;5.68;;
58820;SDS011;70670;52.476;13.334;2024-01-30T01:12:18;12.48;;;6.20;;
58820;SDS011;70670;52.476;13.334;2024-01-30T01:14:43;12.43;;;6.32;;
58820;SDS011;70670;52.476;13.334;2024-01-30T01:17:09;10.75;;;5.90;;
58820;SDS011;70670;52.476;13.334;2024-01-30T01:19:35;13.75;;;5.80;;
58820;SDS011;70670;52.476;13.334;2024-01-30T01:22:00;15.05;;;5.80;;
58820;SDS011;70670;52.476;13.334;2024-01-30T01:24:26;10.90;;;6.32;;
58820;SDS011;70670;52.476;13.334;2024-01-30T01:26:52;12.45;;;6.35;;
58820;SDS011;70670;52.476;13.334;2024-01-30T01:29:17;10.95;;;5.55;;
58820;SDS011;70670;52.476;13.334;2024-01-30T01:31:43;9.73;;;5.18;;
58820;SDS011;70670;52.476;13.334;2024-01-30T01:34:09;13.90;;;6.07;;
58820;SDS011;70670;52.476;13.334;2024-01-30T01:36:35;12.18;;;6.13;;
58820;SDS011;70670;52.476;13.334;2024-01-30T01:39:01;11.35;;;6.40;;
58820;SDS011;70670;52.476;13.334;2024-01-30T01:41:31;11.05;;;5.95;;
58820;SDS011;70670;52.476;13.334;2024-01-30T01:43:58;13.73;;;6.75;;
58820;SDS011;70670;52.476;13.334;2024-01-30T01:46:26;11.75;;;6.32;;
58820;SDS011;70670;52.476;13.334;2024-01-30T01:48:52;11.25;;;6.07;;
58820;SDS011;70670;52.476;13.334;2024-01-30T01:51:19;9.52;;;5.53;;
58820;SDS011;70670;52.476;13.334;2024-01-30T01:53:45;11.30;;;5.70;;
58820;SDS011;70670;52.476;13.334;2024-01-30T01:56:11;10.88;;;6.20;;
58820;SDS011;70670;52.476;13.334;2024-01-30T01:58:37;10.50;;;6.13;;
58820;SDS011;70670;52.476;13.334;2024-01-30T02:01:03;8.88;;;5.65;;
58820;SDS011;70670;52.476;13.334;2024-01-30T02:03:30;9.75;;;6.05;;
58820;SDS011;70670;52.476;13.334;2024-01-30T02:05:56;11.27;;;5.60;;
58820;SDS011;70670;52.476;13.334;2024-01-30T02:08:22;12.90;;;6.05;;
58820;SDS011;70670;52.476;13.334;2024-01-30T02:10:49;12.10;;;5.88;;
58820;SDS011;70670;52.476;13.334;2024-01-30T02:13:15;9.77;;;5.60;;
58820;SDS011;70670;52.476;13.334;2024-01-30T02:15:41;10.05;;;5.82;;
58820;SDS011;70670;52.476;13.334;2024-01-30T02:18:06;11.18;;;5.68;;
58820;SDS011;70670;52.476;13.334;2024-01-30T02:20:32;12.02;;;6.18;;
58820;SDS011;70670;52.476;13.334;2024-01-30T02:23:00;13.50;;;5.90;;
58820;SDS011;70670;52.476;13.334;2024-01-30T02:25:41;12.70;;;5.72;;
58820;SDS011;70670;52.476;13.334;2024-01-30T02:28:15;13.77;;;6.32;;
58820;SDS011;70670;52.476;13.334;2024-01-30T02:30:44;13.60;;;6.35;;
58820;SDS011;70670;52.476;13.334;2024-01-30T02:33:10;12.80;;;5.85;;
58820;SDS011;70670;52.476;13.334;2024-01-30T02:35:35;13.65;;;6.15;;
58820;SDS011;70670;52.476;13.334;2024-01-30T02:38:01;9.18;;;5.32;;
58820;SDS011;70670;52.476;13.334;2024-01-30T02:40:27;13.00;;;6.00;;
58820;SDS011;70670;52.476;13.334;2024-01-30T02:42:52;12.15;;;6.55;;
58820;SDS011;70670;52.476;13.334;2024-01-30T02:45:18;11.50;;;5.40;;
58820;SDS011;70670;52.476;13.334;2024-01-30T02:47:43;13.65;;;6.13;;
58820;SDS011;70670;52.476;13.334;2024-01-30T02:50:09;12.20;;;5.75;;
58820;SDS011;70670;52.476;13.334;2024-01-30T02:52:35;12.27;;;6.32;;
58820;SDS011;70670;52.476;13.334;2024-01-30T02:55:01;11.15;;;6.13;;
58820;SDS011;70670;52.476;13.334;2024-01-30T02:57:27;15.00;;;6.18;;
58820;SDS011;70670;52.476;13.334;2024-01-30T02:59:53;11.57;;;6.15;;
58820;SDS011;70670;52.476;13.334;2024-01-30T03:02:19;11.38;;;6.57;;
58820;SDS011;70670;52.476;13.334;2024-01-30T03:04:45;20.15;;;6.82;;
58820;SDS011;70670;52.476;13.334;2024-01-30T03:07:11;14.10;;;6.55;;
58820;SDS011;70670;52.476;13.334;2024-01-30T03:09:37;13.30;;;6.47;;
58820;SDS011;70670;52.476;13.334;2024-01-30T03:12:03;12.45;;;6.32;;
58820;SDS011;70670;52.476;13.334;2024-01-30T03:14:32;17.42;;;7.68;;
58820;SDS011;70670;52.476;13.334;2024-01-30T03:16:57;11.70;;;6.60;;
58820;SDS011;70670;52.476;13.334;2024-01-30T03:19:23;12.75;;;6.20;;
58820;SDS011;70670;52.476;13.334;2024-01-30T03:21:49;13.15;;;6.38;;
58820;SDS011;70670;52.476;13.334;2024-01-30T03:24:15;15.13;;;6.95;;
58820;SDS011;70670;52.476;13.334;2024-01-30T03:26:41;12.07;;;5.53;;
58820;SDS011;70670;52.476;13.334;2024-01-30T03:29:06;16.10;;;6.60;;
58820;SDS011;70670;52.476;13.334;2024-01-30T03:31:32;14.00;;;6.57;;
58820;SDS011;70670;52.476;13.334;2024-01-30T03:33:58;9.15;;;5.80;;
58820;SDS011;70670;52.476;13.334;2024-01-30T03:36:24;12.95;;;6.07;;
58820;SDS011;70670;52.476;13.334;2024-01-30T03:38:50;14.50;;;7.07;;
58820;SDS011;70670;52.476;13.334;2024-01-30T03:41:15;12.88;;;6.57;;
58820;SDS011;70670;52.476;13.334;2024-01-30T03:43:41;15.80;;;6.63;;
58820;SDS011;70670;52.476;13.334;2024-01-30T03:46:06;13.00;;;6.55;;
58820;SDS011;70670;52.476;13.334;2024-01-30T03:48:32;14.43;;;6.50;;
58820;SDS011;70670;52.476;13.334;2024-01-30T03:50:58;13.93;;;6.40;;
58820;SDS011;70670;52.476;13.334;2024-01-30T03:53:24;14.32;;;5.82;;
58820;SDS011;70670;52.476;13.334;2024-01-30T03:55:49;13.43;;;6.63;;
58820;SDS011;70670;52.476;13.334;2024-01-30T03:58:15;13.35;;;6.40;;
58820;SDS011;70670;52.476;13.334;2024-01-30T04:00:40;11.15;;;6.40;;
58820;SDS011;70670;52.476;13.334;2024-01-30T04:03:06;10.27;;;5.70;;
58820;SDS011;70670;52.476;13.334;2024-01-30T04:05:32;13.32;;;6.20;;
58820;SDS011;70670;52.476;13.334;2024-01-30T04:07:58;11.70;;;6.22;;
58820;SDS011;70670;52.476;13.334;2024-01-30T04:10:24;11.02;;;6.30;;
58820;SDS011;70670;52.476;13.334;2024-01-30T04:12:50;13.02;;;6.47;;
58820;SDS011;70670;52.476;13.334;2024-01-30T04:15:17;15.52;;;5.95;;
58820;SDS011;70670;52.476;13.334;2024-01-30T04:17:43;13.48;;;6.90;;
58820;SDS011;70670;52.476;13.334;2024-01-30T04:20:13;11.32;;;6.32;;
58820;SDS011;70670;52.476;13.334;2024-01-30T04:22:39;13.80;;;6.20;;
58820;SDS011;70670;52.476;13.334;2024-01-30T04:25:04;13.57;;;5.80;;
58820;SDS011;70670;52.476;13.334;2024-01-30T04:27:30;11.02;;;6.28;;
58820;SDS011;70670;52.476;13.334;2024-01-30T04:29:56;10.90;;;6.68;;
58820;SDS011;70670;52.476;13.334;2024-01-30T04:32:22;10.32;;;6.07;;
58820;SDS011;70670;52.476;13.334;2024-01-30T04:34:47;11.80;;;6.53;;
58820;SDS011;70670;52.476;13.334;2024-01-30T04:37:13;11.52;;;6.47;;
58820;SDS011;70670;52.476;13.334;2024-01-30T04:39:38;11.88;;;6.30;;
58820;SDS011;70670;52.476;13.334;2024-01-30T04:42:04;14.95;;;6.82;;
58820;SDS011;70670;52.476;13.334;2024-01-30T04:44:30;13.98;;;6.80;;
58820;SDS011;70670;52.476;13.334;2024-01-30T04:46:56;14.32;;;6.68;;
58820;SDS011;70670;52.476;13.334;2024-01-30T04:49:24;8.85;;;5.57;;
58820;SDS011;70670;52.476;13.334;2024-01-30T04:51:50;12.38;;;6.60;;
58820;SDS011;70670;52.476;13.334;2024-01-30T04:54:15;15.18;;;6.45;;
58820;SDS011;70670;52.476;13.334;2024-01-30T04:56:41;15.85;;;6.32;;
58820;SDS011;70670;52.476;13.334;2024-01-30T04:59:06;11.05;;;6.30;;
58820;SDS011;70670;52.476;13.334;2024-01-30T05:01:34;16.40;;;6.35;;
58820;SDS011;70670;52.476;13.334;2024-01-30T05:03:59;13.00;;;6.85;;
58820;SDS011;70670;52.476;13.334;2024-01-30T05:06:26;13.15;;;6.22;;
58820;SDS011;70670;52.476;13.334;2024-01-30T05:08:52;15.35;;;7.07;;
58820;SDS011;70670;52.476;13.334;2024-01-30T05:11:18;16.95;;;6.63;;
58820;SDS011;70670;52.476;13.334;2024-01-30T05:13:43;13.48;;;7.03;;
58820;SDS011;70670;52.476;13.334;2024-01-30T05:16:09;11.88;;;6.35;;
58820;SDS011;70670;52.476;13.334;2024-01-30T05:18:34;13.25;;;6.80;;
58820;SDS011;70670;52.476;13.334;2024-01-30T05:21:01;14.13;;;6.63;;
58820;SDS011;70670;52.476;13.334;2024-01-30T05:23:27;12.43;;;6.22;;
58820;SDS011;70670;52.476;13.334;2024-01-30T05:25:53;13.88;;;6.25;;
58820;SDS011;70670;52.476;13.334;2024-01-30T05:28:18;10.35;;;6.30;;
58820;SDS011;70670;52.476;13.334;2024-01-30T05:30:44;13.90;;;6.70;;
58820;SDS011;70670;52.476;13.334;2024-01-30T05:33:09;15.60;;;6.70;;
58820;SDS011;70670;52.476;13.334;2024-01-30T05:35:37;13.25;;;6.93;;
58820;SDS011;70670;52.476;13.334;2024-01-30T05:38:03;13.70;;;6.57;;
58820;SDS011;70670;52.476;13.334;2024-01-30T05:40:30;12.05;;;6.53;;
58820;SDS011;70670;52.476;13.334;2024-01-30T05:42:56;12.35;;;6.28;;
58820;SDS011;70670;52.476;13.334;2024-01-30T05:45:23;12.48;;;6.78;;
58820;SDS011;70670;52.476;13.334;2024-01-30T05:47:49;12.43;;;6.22;;
58820;SDS011;70670;52.476;13.334;2024-01-30T05:50:14;10.98;;;6.05;;
58820;SDS011;70670;52.476;13.334;2024-01-30T05:52:40;13.18;;;6.60;;
58820;SDS011;70670;52.476;13.334;2024-01-30T05:55:06;11.80;;;6.43;;
58820;SDS011;70670;52.476;13.334;2024-01-30T05:57:32;13.25;;;6.35;;
58820;SDS011;70670;52.476;13.334;2024-01-30T05:59:58;13.63;;;6.60;;
58820;SDS011;70670;52.476;13.334;2024-01-30T06:02:23;13.07;;;6.68;;
58820;SDS011;70670;52.476;13.334;2024-01-30T06:04:49;13.05;;;6.93;;
58820;SDS011;70670;52.476;13.334;2024-01-30T06:07:15;14.65;;;7.00;;
58820;SDS011;70670;52.476;13.334;2024-01-30T06:09:40;11.35;;;6.47;;
58820;SDS011;70670;52.476;13.334;2024-01-30T06:12:06;18.10;;;7.45;;
58820;SDS011;70670;52.476;13.334;2024-01-30T06:14:32;13.27;;;6.93;;
58820;SDS011;70670;52.476;13.334;2024-01-30T06:16:58;16.08;;;7.45;;
58820;SDS011;70670;52.476;13.334;2024-01-30T06:19:24;16.15;;;7.43;;
58820;SDS011;70670;52.476;13.334;2024-01-30T06:21:50;11.07;;;6.28;;
58820;SDS011;70670;52.476;13.334;2024-01-30T06:24:16;13.00;;;7.07;;
58820;SDS011;70670;52.476;13.334;2024-01-30T06:26:42;13.95;;;7.10;;
58820;SDS011;70670;52.476;13.334;2024-01-30T06:29:08;12.25;;;6.57;;
58820;SDS011;70670;52.476;13.334;2024-01-30T06:31:34;16.20;;;7.28;;
58820;SDS011;70670;52.476;13.334;2024-01-30T06:34:05;13.95;;;6.72;;
58820;SDS011;70670;52.476;13.334;2024-01-30T06:36:30;12.00;;;7.07;;
58820;SDS011;70670;52.476;13.334;2024-01-30T06:38:56;16.25;;;7.28;;
58820;SDS011;70670;52.476;13.334;2024-01-30T06:41:22;17.77;;;7.95;;
58820;SDS011;70670;52.476;13.334;2024-01-30T06:43:47;13.32;;;7.28;;
58820;SDS011;70670;52.476;13.334;2024-01-30T06:46:13;17.63;;;7.53;;
58820;SDS011;70670;52.476;13.334;2024-01-30T06:48:39;15.30;;;7.55;;
58820;SDS011;70670;52.476;13.334;2024-01-30T06:51:05;15.02;;;7.30;;
58820;SDS011;70670;52.476;13.334;2024-01-30T06:53:31;15.93;;;7.75;;
58820;SDS011;70670;52.476;13.334;2024-01-30T06:55:57;12.20;;;6.97;;
58820;SDS011;70670;52.476;13.334;2024-01-30T06:58:23;15.93;;;7.45;;
58820;SDS011;70670;52.476;13.334;2024-01-30T07:00:48;16.20;;;7.07;;
58820;SDS011;70670;52.476;13.334;2024-01-30T07:03:14;15.82;;;7.15;;
58820;SDS011;70670;52.476;13.334;2024-01-30T07:05:40;14.20;;;7.57;;
58820;SDS011;70670;52.476;13.334;2024-01-30T07:08:06;14.63;;;6.63;;
58820;SDS011;70670;52.476;13.334;2024-01-30T07:10:31;15.45;;;7.22;;
58820;SDS011;70670;52.476;13.334;2024-01-30T07:12:57;13.52;;;7.38;;
58820;SDS011;70670;52.476;13.334;2024-01-30T07:15:22;15.50;;;7.45;;
58820;SDS011;70670;52.476;13.334;2024-01-30T07:17:48;13.27;;;7.10;;
58820;SDS011;70670;52.476;13.334;2024-01-30T07:20:14;13.38;;;7.00;;
58820;SDS011;70670;52.476;13.334;2024-01-30T07:22:40;18.20;;;7.80;;
58820;SDS011;70670;52.476;13.334;2024-01-30T07:25:06;19.50;;;7.95;;
58820;SDS011;70670;52.476;13.334;2024-01-30T07:27:32;14.90;;;7.50;;
58820;SDS011;70670;52.476;13.334;2024-01-30T07:29:57;12.68;;;7.50;;
58820;SDS011;70670;52.476;13.334;2024-01-30T07:32:23;14.13;;;7.03;;
58820;SDS011;70670;52.476;13.334;2024-01-30T07:34:49;17.58;;;7.97;;
58820;SDS011;70670;52.476;13.334;2024-01-30T07:37:14;14.73;;;7.53;;
58820;SDS011;70670;52.476;13.334;2024-01-30T07:39:41;17.60;;;8.57;;
58820;SDS011;70670;52.476;13.334;2024-01-30T07:42:08;14.93;;;7.53;;
58820;SDS011;70670;52.476;13.334;2024-01-30T07:44:33;14.45;;;6.68;;
58820;SDS011;70670;52.476;13.334;2024-01-30T07:46:59;16.15;;;7.18;;
58820;SDS011;70670;52.476;13.334;2024-01-30T07:49:25;17.67;;;7.15;;
58820;SDS011;70670;52.476;13.334;2024-01-30T07:51:51;17.67;;;7.20;;
58820;SDS011;70670;52.476;13.334;2024-01-30T07:54:16;15.55;;;7.90;;
58820;SDS011;70670;52.476;13.334;2024-01-30T07:56:42;13.57;;;7.47;;
58820;SDS011;70670;52.476;13.334;2024-01-30T07:59:11;13.80;;;7.93;;
58820;SDS011;70670;52.476;13.334;2024-01-30T08:01:37;14.77;;;7.07;;
58820;SDS011;70670;52.476;13.334;2024-01-30T08:04:03;15.45;;;7.85;;
58820;SDS011;70670;52.476;13.334;2024-01-30T08:06:29;16.40;;;7.70;;
58820;SDS011;70670;52.476;13.334;2024-01-30T08:08:54;16.20;;;7.68;;
58820;SDS011;70670;52.476;13.334;2024-01-30T08:11:20;16.25;;;7.13;;
58820;SDS011;70670;52.476;13.334;2024-01-30T08:13:51;13.23;;;7.20;;
58820;SDS011;70670;52.476;13.334;2024-01-30T08:16:34;20.92;;;7.55;;
58820;SDS011;70670;52.476;13.334;2024-01-30T08:19:00;16.42;;;7.70;;
58820;SDS011;70670;52.476;13.334;2024-01-30T08:21:26;15.48;;;7.95;;
58820;SDS011;70670;52.476;13.334;2024-01-30T08:23:52;15.48;;;7.80;;
58820;SDS011;70670;52.476;13.334;2024-01-30T08:26:17;18.42;;;7.72;;
58820;SDS011;70670;52.476;13.334;2024-01-30T08:28:43;11.02;;;7.30;;
58820;SDS011;70670;52.476;13.334;2024-01-30T08:31:10;17.05;;;8.27;;
58820;SDS011;70670;52.476;13.334;2024-01-30T08:33:37;13.98;;;7.30;;
58820;SDS011;70670;52.476;13.334;2024-01-30T08:36:03;13.50;;;7.40;;
58820;SDS011;70670;52.476;13.334;2024-01-30T08:38:28;12.60;;;7.63;;
58820;SDS011;70670;52.476;13.334;2024-01-30T08:40:55;14.95;;;7.32;;
58820;SDS011;70670;52.476;13.334;2024-01-30T08:43:21;16.55;;;7.47;;
58820;SDS011;70670;52.476;13.334;2024-01-30T08:45:46;12.40;;;7.38;;
58820;SDS011;70670;52.476;13.334;2024-01-30T08:48:12;14.30;;;8.02;;
58820;SDS011;70670;52.476;13.334;2024-01-30T08:50:38;16.45;;;7.63;;
58820;SDS011;70670;52.476;13.334;2024-01-30T08:53:03;13.98;;;7.88;;
58820;SDS011;70670;52.476;13.334;2024-01-30T08:55:29;16.80;;;7.38;;
58820;SDS011;70670;52.476;13.334;2024-01-30T08:57:55;19.88;;;7.82;;
58820;SDS011;70670;52.476;13.334;2024-01-30T09:00:21;12.82;;;7.20;;
58820;SDS011;70670;52.476;13.334;2024-01-30T09:02:46;16.05;;;7.82;;
58820;SDS011;70670;52.476;13.334;2024-01-30T09:05:12;15.77;;;7.68;;
58820;SDS011;70670;52.476;13.334;2024-01-30T09:07:38;13.77;;;8.02;;
58820;SDS011;70670;52.476;13.334;2024-01-30T09:10:04;15.77;;;7.35;;
58820;SDS011;70670;52.476;13.334;2024-01-30T09:12:30;14.90;;;8.18;;
58820;SDS011;70670;52.476;13.334;2024-01-30T09:14:56;31.70;;;12.75;;
58820;SDS011;70670;52.476;13.334;2024-01-30T09:17:21;26.38;;;11.05;;
58820;SDS011;70670;52.476;13.334;2024-01-30T09:19:47;16.50;;;7.70;;
58820;SDS011;70670;52.476;13.334;2024-01-30T09:22:13;12.73;;;7.53;;
58820;SDS011;70670;52.476;13.334;2024-01-30T09:24:39;16.40;;;7.47;;
58820;SDS011;70670;52.476;13.334;2024-01-30T09:27:05;18.55;;;8.60;;
58820;SDS011;70670;52.476;13.334;2024-01-30T09:29:31;21.85;;;9.35;;
58820;SDS011;70670;52.476;13.334;2024-01-30T09:31:59;33.22;;;12.27;;
58820;SDS011;70670;52.476;13.334;2024-01-30T09:34:25;35.30;;;12.38;;
58820;SDS011;70670;52.476;13.334;2024-01-30T09:36:51;37.75;;;14.45;;
58820;SDS011;70670;52.476;13.334;2024-01-30T09:39:16;23.00;;;9.23;;
58820;SDS011;70670;52.476;13.334;2024-01-30T09:41:45;34.33;;;14.00;;
58820;SDS011;70670;52.476;13.334;2024-01-30T09:44:15;19.33;;;9.07;;
58820;SDS011;70670;52.476;13.334;2024-01-30T09:46:42;19.13;;;9.20;;
58820;SDS011;70670;52.476;13.334;2024-01-30T09:49:08;26.27;;;11.07;;
58820;SDS011;70670;52.476;13.334;2024-01-30T09:51:34;13.15;;;7.47;;
58820;SDS011;70670;52.476;13.334;2024-01-30T09:54:01;13.82;;;7.68;;
58820;SDS011;70670;52.476;13.334;2024-01-30T09:56:28;15.00;;;6.85;;
58820;SDS011;70670;52.476;13.334;2024-01-30T09:58:54;17.30;;;7.43;;
58820;SDS011;70670;52.476;13.334;2024-01-30T10:01:20;13.35;;;6.97;;
58820;SDS011;70670;52.476;13.334;2024-01-30T10:03:45;12.80;;;7.07;;
58820;SDS011;70670;52.476;13.334;2024-01-30T10:06:11;17.52;;;6.70;;
58820;SDS011;70670;52.476;13.334;2024-01-30T10:08:37;12.98;;;6.93;;
58820;SDS011;70670;52.476;13.334;2024-01-30T10:11:03;10.68;;;6.43;;
58820;SDS011;70670;52.476;13.334;2024-01-30T10:13:29;17.00;;;6.15;;
58820;SDS011;70670;52.476;13.334;2024-01-30T10:15:54;18.95;;;8.77;;
58820;SDS011;70670;52.476;13.334;2024-01-30T10:18:22;17.08;;;6.78;;
58820;SDS011;70670;52.476;13.334;2024-01-30T10:20:48;13.77;;;7.60;;
58820;SDS011;70670;52.476;13.334;2024-01-30T10:23:13;13.18;;;6.45;;
58820;SDS011;70670;52.476;13.334;2024-01-30T10:25:39;13.05;;;5.95;;
58820;SDS011;70670;52.476;13.334;2024-01-30T10:28:05;14.63;;;6.65;;
58820;SDS011;70670;52.476;13.334;2024-01-30T10:30:31;10.57;;;5.68;;
58820;SDS011;70670;52.476;13.334;2024-01-30T10:32:56;12.30;;;5.70;;
58820;SDS011;70670;52.476;13.334;2024-01-30T10:35:22;13.55;;;6.03;;
58820;SDS011;70670;52.476;13.334;2024-01-30T10:37:47;9.65;;;5.68;;
58820;SDS011;70670;52.476;13.334;2024-01-30T10:40:15;11.40;;;5.85;;
58820;SDS011;70670;52.476;13.334;2024-01-30T10:42:43;14.07;;;6.03;;
58820;SDS011;70670;52.476;13.334;2024-01-30T10:45:14;13.35;;;5.78;;
58820;SDS011;70670;52.476;13.334;2024-01-30T10:47:46;10.88;;;5.97;;
58820;SDS011;70670;52.476;13.334;2024-01-30T10:50:15;16.35;;;6.55;;
58820;SDS011;70670;52.476;13.334;2024-01-30T10:52:41;10.52;;;6.15;;
58820;SDS011;70670;52.476;13.334;2024-01-30T10:57:36;12.90;;;6.50;;
58820;SDS011;70670;52.476;13.334;2024-01-30T11:00:03;11.20;;;5.65;;
58820;SDS011;70670;52.476;13.334;2024-01-30T11:02:36;8.40;;;4.90;;
58820;SDS011;70670;52.476;13.334;2024-01-30T11:05:04;9.80;;;5.93;;
58820;SDS011;70670;52.476;13.334;2024-01-30T11:07:30;15.30;;;5.88;;
58820;SDS011;70670;52.476;13.334;2024-01-30T11:12:28;12.23;;;6.03;;
58820;SDS011;70670;52.476;13.334;2024-01-30T11:20:11;12.63;;;6.18;;
58820;SDS011;70670;52.476;13.334;2024-01-30T11:22:50;12.80;;;6.80;;
58820;SDS011;70670;52.476;13.334;2024-01-30T11:25:17;12.82;;;6.40;;
58820;SDS011;70670;52.476;13.334;2024-01-30T11:27:45;11.52;;;6.88;;
58820;SDS011;70670;52.476;13.334;2024-01-30T11:30:25;14.07;;;6.60;;
58820;SDS011;70670;52.476;13.334;2024-01-30T11:35:56;15.05;;;6.60;;
58820;SDS011;70670;52.476;13.334;2024-01-30T11:38:23;11.82;;;6.20;;
58820;SDS011;70670;52.476;13.334;2024-01-30T11:40:51;14.45;;;7.50;;
58820;SDS011;70670;52.476;13.334;2024-01-30T11:43:18;13.85;;;6.75;;
58820;SDS011;70670;52.476;13.334;2024-01-30T11:45:44;10.40;;;6.25;;
58820;SDS011;70670;52.476;13.334;2024-01-30T11:48:11;10.60;;;5.97;;
58820;SDS011;70670;52.476;13.334;2024-01-30T11:50:37;11.75;;;6.28;;
58820;SDS011;70670;52.476;13.334;2024-01-30T11:53:04;19.30;;;7.82;;
58820;SDS011;70670;52.476;13.334;2024-01-30T11:55:30;12.35;;;6.18;;
58820;SDS011;70670;52.476;13.334;2024-01-30T11:57:56;12.23;;;7.20;;
58820;SDS011;70670;52.476;13.334;2024-01-30T12:00:22;14.07;;;6.97;;
58820;SDS011;70670;52.476;13.334;2024-01-30T12:02:48;12.88;;;6.47;;
58820;SDS011;70670;52.476;13.334;2024-01-30T12:05:15;15.20;;;6.35;;
58820;SDS011;70670;52.476;13.334;2024-01-30T12:07:44;12.85;;;6.75;;
58820;SDS011;70670;52.476;13.334;2024-01-30T12:10:10;12.35;;;7.07;;
58820;SDS011;70670;52.476;13.334;2024-01-30T12:12:36;15.48;;;7.40;;
58820;SDS011;70670;52.476;13.334;2024-01-30T12:15:02;10.50;;;6.22;;
58820;SDS011;70670;52.476;13.334;2024-01-30T12:17:31;16.10;;;6.63;;
58820;SDS011;70670;52.476;13.334;2024-01-30T12:20:11;13.70;;;6.38;;
58820;SDS011;70670;52.476;13.334;2024-01-30T12:22:40;14.95;;;7.25;;
58820;SDS011;70670;52.476;13.334;2024-01-30T12:25:10;11.45;;;6.65;;
58820;SDS011;70670;52.476;13.334;2024-01-30T12:27:37;13.95;;;6.95;;
58820;SDS011;70670;52.476;13.334;2024-01-30T12:30:06;13.68;;;6.82;;
58820;SDS011;70670;52.476;13.334;2024-01-30T12:32:36;13.85;;;7.00;;
58820;SDS011;70670;52.476;13.334;2024-01-30T12:35:15;11.88;;;7.20;;
58820;SDS011;70670;52.476;13.334;2024-01-30T12:37:42;13.02;;;7.03;;
58820;SDS011;70670;52.476;13.334;2024-01-30T12:40:09;14.80;;;6.85;;
58820;SDS011;70670;52.476;13.334;2024-01-30T12:42:36;11.52;;;7.05;;
58820;SDS011;70670;52.476;13.334;2024-01-30T12:45:03;11.68;;;7.10;;
58820;SDS011;70670;52.476;13.334;2024-01-30T12:47:29;14.93;;;7.45;;
58820;SDS011;70670;52.476;13.334;2024-01-30T12:49:55;14.07;;;7.35;;
58820;SDS011;70670;52.476;13.334;2024-01-30T12:52:20;11.65;;;6.93;;
58820;SDS011;70670;52.476;13.334;2024-01-30T12:54:47;13.82;;;7.28;;
58820;SDS011;70670;52.476;13.334;2024-01-30T12:57:13;13.18;;;7.53;;
58820;SDS011;70670;52.476;13.334;2024-01-30T12:59:39;10.32;;;6.75;;
58820;SDS011;70670;52.476;13.334;2024-01-30T13:02:05;11.38;;;6.82;;
58820;SDS011;70670;52.476;13.334;2024-01-30T13:04:32;13.73;;;6.63;;
58820;SDS011;70670;52.476;13.334;2024-01-30T13:06:58;10.38;;;6.72;;
58820;SDS011;70670;52.476;13.334;2024-01-30T13:09:24;13.20;;;7.05;;
58820;SDS011;70670;52.476;13.334;2024-01-30T13:11:49;16.15;;;7.07;;
58820;SDS011;70670;52.476;13.334;2024-01-30T13:14:16;22.25;;;7.43;;
58820;SDS011;70670;52.476;13.334;2024-01-30T13:16:42;12.25;;;7.07;;
58820;SDS011;70670;52.476;13.334;2024-01-30T13:19:08;13.55;;;6.40;;
58820;SDS011;70670;52.476;13.334;2024-01-30T13:21:33;16.75;;;6.80;;
58820;SDS011;70670;52.476;13.334;2024-01-30T13:23:59;10.30;;;6.43;;
58820;SDS011;70670;52.476;13.334;2024-01-30T13:26:24;15.23;;;7.22;;
58820;SDS011;70670;52.476;13.334;2024-01-30T13:28:50;12.40;;;6.93;;
58820;SDS011;70670;52.476;13.334;2024-01-30T13:31:16;13.30;;;7.00;;
58820;SDS011;70670;52.476;13.334;2024-01-30T13:33:42;16.50;;;6.55;;
58820;SDS011;70670;52.476;13.334;2024-01-30T13:36:09;12.52;;;6.90;;
58820;SDS011;70670;52.476;13.334;2024-01-30T13:38:36;11.60;;;6.22;;
58820;SDS011;70670;52.476;13.334;2024-01-30T13:41:01;14.20;;;6.90;;
58820;SDS011;70670;52.476;13.334;2024-01-30T13:43:28;16.42;;;6.82;;
58820;SDS011;70670;52.476;13.334;2024-01-30T13:45:53;15.50;;;6.82;;
58820;SDS011;70670;52.476;13.334;2024-01-30T13:48:19;16.23;;;6.68;;
58820;SDS011;70670;52.476;13.334;2024-01-30T13:50:44;12.73;;;6.40;;
58820;SDS011;70670;52.476;13.334;2024-01-30T13:53:11;16.55;;;7.03;;
58820;SDS011;70670;52.476;13.334;2024-01-30T13:55:36;17.13;;;7.30;;
58820;SDS011;70670;52.476;13.334;2024-01-30T13:58:03;11.40;;;6.03;;
58820;SDS011;70670;52.476;13.334;2024-01-30T14:00:29;11.70;;;6.70;;
58820;SDS011;70670;52.476;13.334;2024-01-30T14:02:54;13.18;;;6.95;;
58820;SDS011;70670;52.476;13.334;2024-01-30T14:05:21;13.63;;;6.40;;
58820;SDS011;70670;52.476;13.334;2024-01-30T14:07:47;17.90;;;7.47;;
58820;SDS011;70670;52.476;13.334;2024-01-30T14:10:13;16.77;;;7.57;;
58820;SDS011;70670;52.476;13.334;2024-01-30T14:12:39;19.25;;;6.70;;
58820;SDS011;70670;52.476;13.334;2024-01-30T14:15:06;14.75;;;6.68;;
58820;SDS011;70670;52.476;13.334;2024-01-30T14:17:33;13.17;;;6.83;;
58820;SDS011;70670;52.476;13.334;2024-01-30T14:19:59;13.95;;;6.43;;
58820;SDS011;70670;52.476;13.334;2024-01-30T14:22:24;14.65;;;6.65;;
58820;SDS011;70670;52.476;13.334;2024-01-30T14:24:50;18.08;;;7.45;;
58820;SDS011;70670;52.476;13.334;2024-01-30T14:27:16;14.82;;;7.00;;
58820;SDS011;70670;52.476;13.334;2024-01-30T14:29:41;12.27;;;6.70;;